createdAt,value
2023-04-07T00:00:37.835Z,3.54
2023-04-07T00:03:04.599Z,3.52
2023-04-07T00:05:31.342Z,3.62
2023-04-07T00:07:58.067Z,3.56
2023-04-07T00:10:24.884Z,3.52
2023-04-07T00:12:53.054Z,3.48
2023-04-07T00:15:19.878Z,3.45
2023-04-07T00:17:46.599Z,3.43
2023-04-07T00:20:13.287Z,3.45
2023-04-07T00:22:40.072Z,3.40
2023-04-07T00:25:07.920Z,3.32
2023-04-07T00:27:34.630Z,3.36
2023-04-07T00:30:02.926Z,3.35
2023-04-07T00:32:29.645Z,3.32
2023-04-07T00:34:56.420Z,3.36
2023-04-07T00:37:23.176Z,3.36
2023-04-07T00:39:50.076Z,3.36
2023-04-07T00:42:16.805Z,3.31
2023-04-07T00:44:43.525Z,3.25
2023-04-07T00:47:11.533Z,3.22
2023-04-07T00:49:38.232Z,3.21
2023-04-07T00:52:05.240Z,3.24
2023-04-07T00:54:31.947Z,3.34
2023-04-07T00:56:58.685Z,3.19
2023-04-07T00:59:25.639Z,3.22
2023-04-07T01:01:55.852Z,3.27
2023-04-07T01:04:27.385Z,3.31
2023-04-07T01:06:55.686Z,3.35
2023-04-07T01:09:34.915Z,3.38
2023-04-07T01:12:05.275Z,3.45
2023-04-07T01:14:35.198Z,3.51
2023-04-07T01:17:01.907Z,3.42
2023-04-07T01:19:33.720Z,3.45
2023-04-07T01:22:00.611Z,3.58
2023-04-07T01:24:44.836Z,3.48
2023-04-07T01:27:18.609Z,3.52
2023-04-07T01:29:46.733Z,3.46
2023-04-07T01:32:13.456Z,3.51
2023-04-07T01:34:40.751Z,3.55
2023-04-07T01:37:07.493Z,3.54
2023-04-07T01:39:34.262Z,3.59
2023-04-07T01:42:01.162Z,3.51
2023-04-07T01:44:27.838Z,3.43
2023-04-07T01:46:55.983Z,3.39
2023-04-07T01:49:22.859Z,3.34
2023-04-07T01:51:49.651Z,3.35
2023-04-07T01:54:16.575Z,3.28
2023-04-07T01:56:43.363Z,3.25
2023-04-07T01:59:10.065Z,3.28
2023-04-07T02:01:36.869Z,3.28
2023-04-07T02:04:08.241Z,3.28
2023-04-07T02:06:42.026Z,3.28
2023-04-07T02:09:09.773Z,3.28
2023-04-07T02:11:36.488Z,3.31
2023-04-07T02:14:03.975Z,3.34
2023-04-07T02:16:31.032Z,3.28
2023-04-07T02:18:57.731Z,3.32
2023-04-07T02:21:25.833Z,3.29
2023-04-07T02:23:52.662Z,3.19
2023-04-07T02:26:19.397Z,3.29
2023-04-07T02:28:46.137Z,3.29
2023-04-07T02:31:12.946Z,3.25
2023-04-07T02:33:39.766Z,3.21
2023-04-07T02:36:06.717Z,3.17
2023-04-07T02:38:34.825Z,3.15
2023-04-07T02:41:01.563Z,3.22
2023-04-07T02:43:28.279Z,3.14
2023-04-07T02:45:55.094Z,3.24
2023-04-07T02:48:21.896Z,3.15
2023-04-07T02:50:48.636Z,3.15
2023-04-07T02:53:15.366Z,3.17
2023-04-07T02:55:43.494Z,3.24
2023-04-07T02:58:10.229Z,3.15
2023-04-07T03:00:36.980Z,3.08
2023-04-07T03:03:03.897Z,3.04
2023-04-07T03:05:30.647Z,3.01
2023-04-07T03:07:57.496Z,3.01
2023-04-07T03:10:24.198Z,2.93
2023-04-07T03:12:52.287Z,2.87
2023-04-07T03:15:19.145Z,2.86
2023-04-07T03:17:45.884Z,2.90
2023-04-07T03:20:12.638Z,2.84
2023-04-07T03:22:39.368Z,2.90
2023-04-07T03:25:06.559Z,2.89
2023-04-07T03:27:33.331Z,2.94
2023-04-07T03:30:01.990Z,2.87
2023-04-07T03:32:28.713Z,2.93
2023-04-07T03:34:55.417Z,2.91
2023-04-07T03:37:22.263Z,2.96
2023-04-07T03:39:50.365Z,2.94
2023-04-07T03:42:18.257Z,2.89
2023-04-07T03:44:44.975Z,2.89
2023-04-07T03:47:13.073Z,2.93
2023-04-07T03:49:39.767Z,2.90
2023-04-07T03:52:06.625Z,2.93
2023-04-07T03:54:33.312Z,2.94
2023-04-07T03:57:00.009Z,2.94
2023-04-07T03:59:26.750Z,2.96
2023-04-07T04:01:53.472Z,2.94
2023-04-07T04:04:21.733Z,2.96
2023-04-07T04:06:48.873Z,2.90
2023-04-07T04:09:15.551Z,2.98
2023-04-07T04:11:42.268Z,2.97
2023-04-07T04:14:09.051Z,2.97
2023-04-07T04:16:35.794Z,2.90
2023-04-07T04:19:02.536Z,3.00
2023-04-07T04:21:30.738Z,3.05
2023-04-07T04:23:57.492Z,3.11
2023-04-07T04:26:24.172Z,3.18
2023-04-07T04:28:50.940Z,3.24
2023-04-07T04:31:17.629Z,3.29
2023-04-07T04:33:44.311Z,3.36
2023-04-07T04:36:11.115Z,3.39
2023-04-07T04:38:39.188Z,3.43
2023-04-07T04:41:05.909Z,3.52
2023-04-07T04:43:32.674Z,3.42
2023-04-07T04:45:59.406Z,3.58
2023-04-07T04:48:26.100Z,3.55
2023-04-07T04:50:52.834Z,3.51
2023-04-07T04:53:19.563Z,3.60
2023-04-07T04:55:47.734Z,3.69
2023-04-07T04:58:14.514Z,3.85
2023-04-07T05:00:41.623Z,3.96
2023-04-07T05:03:08.533Z,4.01
2023-04-07T05:05:35.592Z,3.94
2023-04-07T05:08:02.335Z,4.13
2023-04-07T05:10:29.038Z,4.01
2023-04-07T05:12:57.210Z,4.20
2023-04-07T05:15:23.932Z,4.11
2023-04-07T05:17:50.793Z,4.20
2023-04-07T05:20:17.731Z,4.22
2023-04-07T05:22:44.444Z,4.37
2023-04-07T05:25:11.354Z,4.41
2023-04-07T05:27:38.178Z,4.49
2023-04-07T05:30:07.868Z,4.52
2023-04-07T05:32:34.569Z,4.66
2023-04-07T05:35:01.307Z,4.61
2023-04-07T05:37:28.053Z,4.82
2023-04-07T05:39:54.795Z,4.83
2023-04-07T05:42:21.558Z,4.69
2023-04-07T05:44:48.254Z,4.73
2023-04-07T05:47:16.418Z,4.86
2023-04-07T05:49:43.222Z,4.80
2023-04-07T05:52:09.943Z,4.92
2023-04-07T05:54:36.630Z,5.12
2023-04-07T05:57:03.405Z,5.59
2023-04-07T05:59:30.127Z,5.61
2023-04-07T06:01:56.968Z,5.44
2023-04-07T06:04:25.091Z,5.85
2023-04-07T06:06:51.835Z,5.73
2023-04-07T06:09:18.583Z,5.82
2023-04-07T06:11:45.330Z,5.59
2023-04-07T06:14:12.009Z,5.69
2023-04-07T06:16:38.834Z,5.30
2023-04-07T06:19:05.711Z,5.35
2023-04-07T06:21:33.820Z,5.47
2023-04-07T06:24:00.500Z,5.58
2023-04-07T06:26:27.227Z,5.50
2023-04-07T06:28:53.973Z,5.61
2023-04-07T06:31:20.733Z,5.73
2023-04-07T06:33:47.718Z,5.79
2023-04-07T06:36:14.513Z,5.71
2023-04-07T06:38:42.611Z,5.51
2023-04-07T06:41:09.386Z,5.61
2023-04-07T06:43:36.124Z,5.76
2023-04-07T06:46:02.918Z,5.69
2023-04-07T06:48:29.691Z,5.99
2023-04-07T06:50:59.403Z,6.09
2023-04-07T06:53:26.146Z,6.41
2023-04-07T06:56:03.150Z,6.51
2023-04-07T06:58:29.838Z,6.74
2023-04-07T07:00:56.519Z,6.79
2023-04-07T07:03:23.441Z,6.91
2023-04-07T07:05:50.514Z,6.85
2023-04-07T07:08:17.256Z,6.84
2023-04-07T07:10:44.039Z,6.75
2023-04-07T07:13:12.149Z,6.74
2023-04-07T07:15:38.842Z,6.64
2023-04-07T07:18:05.684Z,6.42
2023-04-07T07:20:32.480Z,6.54
2023-04-07T07:22:59.214Z,6.77
2023-04-07T07:25:25.937Z,6.67
2023-04-07T07:27:52.645Z,6.54
2023-04-07T07:30:20.988Z,6.07
2023-04-07T07:32:47.735Z,5.69
2023-04-07T07:35:14.430Z,6.19
2023-04-07T07:37:41.155Z,6.33
2023-04-07T07:40:08.204Z,6.42
2023-04-07T07:42:34.986Z,6.74
2023-04-07T07:45:01.665Z,6.98
2023-04-07T07:47:29.924Z,7.12
2023-04-07T07:49:56.614Z,7.22
2023-04-07T07:52:23.441Z,6.96
2023-04-07T07:54:50.182Z,6.84
2023-04-07T07:57:16.885Z,6.72
2023-04-07T07:59:43.590Z,6.82
2023-04-07T08:02:10.542Z,6.72
2023-04-07T08:04:38.684Z,6.63
2023-04-07T08:07:05.462Z,6.34
2023-04-07T08:09:32.190Z,6.16
2023-04-07T08:11:58.928Z,6.13
2023-04-07T08:14:25.608Z,6.33
2023-04-07T08:16:52.389Z,6.03
2023-04-07T08:19:19.149Z,6.63
2023-04-07T08:21:47.307Z,6.58
2023-04-07T08:24:14.032Z,6.96
2023-04-07T08:26:40.722Z,7.54
2023-04-07T08:29:07.409Z,8.12
2023-04-07T08:31:34.205Z,8.26
2023-04-07T08:34:00.938Z,7.94
2023-04-07T08:36:27.673Z,8.07
2023-04-07T08:38:55.899Z,8.06
2023-04-07T08:41:27.541Z,8.16
2023-04-07T08:43:54.209Z,8.36
2023-04-07T08:46:22.554Z,8.56
2023-04-07T08:48:50.361Z,8.91
2023-04-07T08:51:17.090Z,9.11
2023-04-07T08:53:47.521Z,9.43
2023-04-07T08:56:15.942Z,10.05
2023-04-07T08:58:42.650Z,10.19
2023-04-07T09:01:09.542Z,10.22
2023-04-07T09:03:36.490Z,10.77
2023-04-07T09:06:03.458Z,11.11
2023-04-07T09:08:30.205Z,10.18
2023-04-07T09:10:56.996Z,9.64
2023-04-07T09:13:25.753Z,8.46
2023-04-07T09:15:52.607Z,9.70
2023-04-07T09:18:19.598Z,9.64
2023-04-07T09:20:59.166Z,9.63
2023-04-07T09:23:29.930Z,7.03
2023-04-07T09:25:56.703Z,8.53
2023-04-07T09:28:24.912Z,8.57
2023-04-07T09:30:54.395Z,9.15
2023-04-07T09:33:27.405Z,7.75
2023-04-07T09:35:54.256Z,8.98
2023-04-07T09:38:20.977Z,9.76
2023-04-07T09:40:47.682Z,10.41
2023-04-07T09:43:15.594Z,9.25
2023-04-07T09:45:43.681Z,9.00
2023-04-07T09:48:20.036Z,7.75
2023-04-07T09:50:46.880Z,8.33
2023-04-07T09:53:13.621Z,9.84
2023-04-07T09:55:40.504Z,9.29
2023-04-07T09:58:07.267Z,10.57
2023-04-07T10:00:34.006Z,10.99
2023-04-07T10:03:02.281Z,11.15
2023-04-07T10:05:29.221Z,10.76
2023-04-07T10:07:55.923Z,10.94
2023-04-07T10:10:22.662Z,10.25
2023-04-07T10:12:49.815Z,10.59
2023-04-07T10:15:16.515Z,11.55
2023-04-07T10:17:45.720Z,10.86
2023-04-07T10:20:14.038Z,10.83
2023-04-07T10:22:41.364Z,10.44
2023-04-07T10:25:08.768Z,11.24
2023-04-07T10:27:37.480Z,10.84
2023-04-07T10:30:05.324Z,11.20
2023-04-07T10:32:32.133Z,10.57
2023-04-07T10:34:59.440Z,9.28
2023-04-07T10:37:27.542Z,10.67
2023-04-07T10:40:29.046Z,10.28
2023-04-07T10:42:55.881Z,10.69
2023-04-07T10:45:54.539Z,9.78
2023-04-07T10:48:21.336Z,8.81
2023-04-07T10:51:18.585Z,7.68
2023-04-07T10:54:18.026Z,8.67
2023-04-07T10:57:09.898Z,7.58
2023-04-07T10:59:37.598Z,7.22
2023-04-07T11:02:31.811Z,8.78
2023-04-07T11:04:58.673Z,10.14
2023-04-07T11:07:44.340Z,10.32
2023-04-07T11:10:11.792Z,10.39
2023-04-07T11:12:38.490Z,10.38
2023-04-07T11:15:17.481Z,11.66
2023-04-07T11:17:44.253Z,11.80
2023-04-07T11:20:11.357Z,11.59
2023-04-07T11:22:38.202Z,9.23
2023-04-07T11:25:20.296Z,10.87
2023-04-07T11:27:47.149Z,11.85
2023-04-07T11:30:15.245Z,13.79
2023-04-07T11:32:42.081Z,15.08
2023-04-07T11:35:09.664Z,14.51
2023-04-07T11:37:36.353Z,14.64
2023-04-07T11:40:03.045Z,15.05
2023-04-07T11:42:34.504Z,14.59
2023-04-07T11:45:01.241Z,14.76
2023-04-07T11:47:34.815Z,14.74
2023-04-07T11:50:01.575Z,15.12
2023-04-07T11:52:28.413Z,13.42
2023-04-07T11:54:55.282Z,13.40
2023-04-07T11:57:24.745Z,14.46
2023-04-07T12:00:05.336Z,14.43
2023-04-07T12:02:32.717Z,13.67
2023-04-07T12:04:59.582Z,13.86
2023-04-07T12:07:27.956Z,13.07
2023-04-07T12:09:55.095Z,13.12
2023-04-07T12:12:25.724Z,13.06
2023-04-07T12:14:54.399Z,12.55
2023-04-07T12:17:21.501Z,12.72
2023-04-07T12:19:48.210Z,13.02
2023-04-07T12:22:14.930Z,12.10
2023-04-07T12:24:41.689Z,12.04
2023-04-07T12:27:08.420Z,12.34
2023-04-07T12:29:35.128Z,12.28
2023-04-07T12:32:03.228Z,12.61
2023-04-07T12:34:30.101Z,12.59
2023-04-07T12:36:56.818Z,12.89
2023-04-07T12:39:23.559Z,12.57
2023-04-07T12:41:50.368Z,11.31
2023-04-07T12:44:17.035Z,12.04
2023-04-07T12:46:43.771Z,11.39
2023-04-07T12:49:11.887Z,11.99
2023-04-07T12:51:38.572Z,11.18
2023-04-07T12:54:05.291Z,11.61
2023-04-07T12:56:32.097Z,11.96
2023-04-07T12:58:58.783Z,13.07
2023-04-07T13:01:25.505Z,13.55
2023-04-07T13:03:52.657Z,12.78
2023-04-07T13:06:21.221Z,11.66
2023-04-07T13:08:47.994Z,12.30
2023-04-07T13:11:14.746Z,12.33
2023-04-07T13:13:41.430Z,12.96
2023-04-07T13:16:08.310Z,12.21
2023-04-07T13:18:35.055Z,11.42
2023-04-07T13:21:26.680Z,11.01
2023-04-07T13:23:49.819Z,8.33
2023-04-07T13:26:16.588Z,9.16
2023-04-07T13:28:43.432Z,8.61
2023-04-07T13:31:10.185Z,8.02
2023-04-07T13:33:36.968Z,8.09
2023-04-07T13:36:03.865Z,7.88
2023-04-07T13:38:30.556Z,7.98
2023-04-07T13:40:58.662Z,7.38
2023-04-07T13:43:25.434Z,7.07
2023-04-07T13:45:52.248Z,7.28
2023-04-07T13:48:18.939Z,7.17
2023-04-07T13:50:45.621Z,6.92
2023-04-07T13:53:12.363Z,6.96
2023-04-07T13:55:39.057Z,7.02
2023-04-07T13:58:07.263Z,7.16
2023-04-07T14:00:35.642Z,7.15
2023-04-07T14:03:02.632Z,7.09
2023-04-07T14:05:29.457Z,7.06
2023-04-07T14:07:56.151Z,7.09
2023-04-07T14:10:22.816Z,6.91
2023-04-07T14:12:49.509Z,7.15
2023-04-07T14:15:18.461Z,7.15
2023-04-07T14:17:45.282Z,7.07
2023-04-07T14:20:12.091Z,7.20
2023-04-07T14:22:38.869Z,7.13
2023-04-07T14:25:06.671Z,7.53
2023-04-07T14:27:33.359Z,7.19
2023-04-07T14:30:00.126Z,7.16
2023-04-07T14:32:28.421Z,7.40
2023-04-07T14:34:55.174Z,7.19
2023-04-07T14:37:21.954Z,7.12
2023-04-07T14:40:01.531Z,7.00
2023-04-07T14:42:29.529Z,7.26
2023-04-07T14:44:56.277Z,7.37
2023-04-07T14:47:23.078Z,7.12
2023-04-07T14:49:53.186Z,7.15
2023-04-07T14:52:20.369Z,7.26
2023-04-07T14:54:47.192Z,7.20
2023-04-07T14:57:13.971Z,7.02
2023-04-07T14:59:40.722Z,7.24
2023-04-07T15:02:07.531Z,7.17
2023-04-07T15:04:34.420Z,7.07
2023-04-07T15:07:02.567Z,7.10
2023-04-07T15:09:29.257Z,7.33
2023-04-07T15:11:56.024Z,7.07
2023-04-07T15:14:22.703Z,6.98
2023-04-07T15:16:49.417Z,6.84
2023-04-07T15:19:16.193Z,6.72
2023-04-07T15:21:42.898Z,6.78
2023-04-07T15:24:11.014Z,6.85
2023-04-07T15:26:37.780Z,6.72
2023-04-07T15:29:04.484Z,6.81
2023-04-07T15:31:31.253Z,6.91
2023-04-07T15:33:58.082Z,6.93
2023-04-07T15:36:24.746Z,6.65
2023-04-07T15:38:51.481Z,6.88
2023-04-07T15:41:19.630Z,6.98
2023-04-07T15:43:46.650Z,6.75
2023-04-07T15:46:13.525Z,6.67
2023-04-07T15:48:40.263Z,6.75
2023-04-07T15:51:06.994Z,6.71
2023-04-07T15:53:33.981Z,6.68
2023-04-07T15:56:00.702Z,6.67
2023-04-07T15:58:28.784Z,6.59
2023-04-07T16:00:55.505Z,6.52
2023-04-07T16:03:22.454Z,6.57
2023-04-07T16:05:49.281Z,6.54
2023-04-07T16:08:15.945Z,6.52
2023-04-07T16:10:42.809Z,6.51
2023-04-07T16:13:09.593Z,6.41
2023-04-07T16:15:40.802Z,6.34
2023-04-07T16:18:09.413Z,6.26
2023-04-07T16:20:36.091Z,6.27
2023-04-07T16:23:02.780Z,6.23
2023-04-07T16:25:29.689Z,6.20
2023-04-07T16:27:56.510Z,6.20
2023-04-07T16:30:23.252Z,6.17
2023-04-07T16:32:51.429Z,6.10
2023-04-07T16:35:18.173Z,6.09
2023-04-07T16:37:44.871Z,6.05
2023-04-07T16:40:11.956Z,6.06
2023-04-07T16:42:38.691Z,6.03
2023-04-07T16:45:06.473Z,6.02
2023-04-07T16:47:33.333Z,6.06
2023-04-07T16:50:05.188Z,6.02
2023-04-07T16:52:31.984Z,5.98
2023-04-07T16:54:59.147Z,5.96
2023-04-07T16:57:26.016Z,5.95
2023-04-07T16:59:52.739Z,5.89
2023-04-07T17:02:19.630Z,5.88
2023-04-07T17:04:46.431Z,5.85
2023-04-07T17:07:14.570Z,5.89
2023-04-07T17:09:41.351Z,5.86
2023-04-07T17:12:08.132Z,5.82
2023-04-07T17:14:34.919Z,5.82
2023-04-07T17:17:01.870Z,5.76
2023-04-07T17:19:28.758Z,5.81
2023-04-07T17:21:55.473Z,5.76
2023-04-07T17:24:23.615Z,5.81
2023-04-07T17:26:50.361Z,5.73
2023-04-07T17:29:17.117Z,5.72
2023-04-07T17:31:44.007Z,5.76
2023-04-07T17:34:10.856Z,5.76
2023-04-07T17:36:37.743Z,5.75
2023-04-07T17:39:04.554Z,5.75
2023-04-07T17:41:33.384Z,5.69
2023-04-07T17:44:00.107Z,5.71
2023-04-07T17:46:26.965Z,5.76
2023-04-07T17:48:53.728Z,5.85
2023-04-07T17:51:20.478Z,5.78
2023-04-07T17:53:47.423Z,5.75
2023-04-07T17:56:14.289Z,5.88
2023-04-07T17:58:43.180Z,5.99
2023-04-07T18:01:10.689Z,5.95
2023-04-07T18:03:37.624Z,5.99
2023-04-07T18:06:04.683Z,5.93
2023-04-07T18:08:31.396Z,5.85
2023-04-07T18:10:58.096Z,5.93
2023-04-07T18:13:24.912Z,5.99
2023-04-07T18:15:53.182Z,5.98
2023-04-07T18:18:19.895Z,5.95
2023-04-07T18:20:46.636Z,5.88
2023-04-07T18:23:13.476Z,5.92
2023-04-07T18:25:40.198Z,5.95
2023-04-07T18:28:06.909Z,5.92
2023-04-07T18:30:33.654Z,5.92
2023-04-07T18:33:01.754Z,5.90
2023-04-07T18:35:28.540Z,5.89
2023-04-07T18:37:55.311Z,5.89
2023-04-07T18:40:22.056Z,5.81
2023-04-07T18:42:48.768Z,5.79
2023-04-07T18:45:15.542Z,5.76
2023-04-07T18:47:42.278Z,5.78
2023-04-07T18:50:10.780Z,5.72
2023-04-07T18:52:37.589Z,5.81
2023-04-07T18:55:05.314Z,5.82
2023-04-07T18:57:32.015Z,5.82
2023-04-07T18:59:58.997Z,5.73
2023-04-07T19:02:26.088Z,5.69
2023-04-07T19:04:52.893Z,5.66
2023-04-07T19:07:23.910Z,5.78
2023-04-07T19:09:50.658Z,5.78
2023-04-07T19:12:17.386Z,5.79
2023-04-07T19:14:44.233Z,5.75
2023-04-07T19:17:10.935Z,5.62
2023-04-07T19:19:37.635Z,5.65
2023-04-07T19:22:04.379Z,5.56
2023-04-07T19:24:34.674Z,5.54
2023-04-07T19:27:01.375Z,5.54
2023-04-07T19:29:28.199Z,5.44
2023-04-07T19:31:54.952Z,5.44
2023-04-07T19:34:21.621Z,5.50
2023-04-07T19:36:48.343Z,5.44
2023-04-07T19:39:15.024Z,5.50
2023-04-07T19:41:43.110Z,5.44
2023-04-07T19:44:09.885Z,5.37
2023-04-07T19:46:36.618Z,5.37
2023-04-07T19:49:03.309Z,5.37
2023-04-07T19:51:30.091Z,5.34
2023-04-07T19:53:56.819Z,5.30
2023-04-07T19:56:23.635Z,5.30
2023-04-07T19:58:51.812Z,5.31
2023-04-07T20:01:18.710Z,5.27
2023-04-07T20:03:45.638Z,5.26
2023-04-07T20:06:12.471Z,5.23
2023-04-07T20:08:39.166Z,5.19
2023-04-07T20:11:05.882Z,5.28
2023-04-07T20:13:32.606Z,5.24
2023-04-07T20:16:00.664Z,5.21
2023-04-07T20:18:27.351Z,5.20
2023-04-07T20:20:58.822Z,5.19
2023-04-07T20:23:25.559Z,5.23
2023-04-07T20:25:52.278Z,5.09
2023-04-07T20:28:19.087Z,5.09
2023-04-07T20:30:45.849Z,5.10
2023-04-07T20:33:14.032Z,5.00
2023-04-07T20:35:40.886Z,5.00
2023-04-07T20:38:07.613Z,4.99
2023-04-07T20:40:34.427Z,4.93
2023-04-07T20:43:01.165Z,4.92
2023-04-07T20:45:27.943Z,4.86
2023-04-07T20:47:54.711Z,4.87
2023-04-07T20:50:22.908Z,4.86
2023-04-07T20:52:49.608Z,4.83
2023-04-07T20:55:16.327Z,4.84
2023-04-07T20:57:43.068Z,4.83
2023-04-07T21:00:10.323Z,4.83
2023-04-07T21:02:37.369Z,4.82
2023-04-07T21:05:04.505Z,4.86
2023-04-07T21:07:32.640Z,4.79
2023-04-07T21:09:59.333Z,4.79
2023-04-07T21:12:26.062Z,4.68
2023-04-07T21:14:52.760Z,4.66
2023-04-07T21:17:19.511Z,4.66
2023-04-07T21:19:46.239Z,4.65
2023-04-07T21:22:13.195Z,4.65
2023-04-07T21:24:41.519Z,4.61
2023-04-07T21:27:08.311Z,4.56
2023-04-07T21:29:35.014Z,4.49
2023-04-07T21:32:01.755Z,4.46
2023-04-07T21:34:28.537Z,4.48
2023-04-07T21:36:55.307Z,4.45
2023-04-07T21:39:21.996Z,4.40
2023-04-07T21:41:50.225Z,4.38
2023-04-07T21:44:16.899Z,4.38
2023-04-07T21:46:43.652Z,4.40
2023-04-07T21:49:10.438Z,4.38
2023-04-07T21:51:37.098Z,4.45
2023-04-07T21:54:03.856Z,4.37
2023-04-07T21:56:30.606Z,4.37
2023-04-07T21:58:58.648Z,4.31
2023-04-07T22:01:25.401Z,4.28
2023-04-07T22:03:52.199Z,4.27
2023-04-07T22:06:18.940Z,4.25
2023-04-07T22:08:54.965Z,4.25
2023-04-07T22:11:27.728Z,4.25
2023-04-07T22:13:54.485Z,4.25
2023-04-07T22:16:22.615Z,4.27
2023-04-07T22:18:49.639Z,4.30
2023-04-07T22:21:16.565Z,4.35
2023-04-07T22:23:43.692Z,4.35
2023-04-07T22:26:10.448Z,4.38
2023-04-07T22:28:37.140Z,4.35
2023-04-07T22:31:04.153Z,4.37
2023-04-07T22:33:32.317Z,4.31
2023-04-07T22:35:59.032Z,4.27
2023-04-07T22:38:25.744Z,4.27
2023-04-07T22:40:52.487Z,4.20
2023-04-07T22:43:19.177Z,4.25
2023-04-07T22:45:45.979Z,4.21
2023-04-07T22:48:12.808Z,4.20
2023-04-07T22:50:40.981Z,4.22
2023-04-07T22:53:08.020Z,4.20
2023-04-07T22:55:34.830Z,4.21
2023-04-07T22:58:01.552Z,4.15
2023-04-07T23:00:28.272Z,4.18
2023-04-07T23:02:55.172Z,4.21
2023-04-07T23:05:22.060Z,4.22
2023-04-07T23:07:50.174Z,4.24
2023-04-07T23:10:17.034Z,4.25
2023-04-07T23:12:43.733Z,4.28
2023-04-07T23:15:11.139Z,4.22
2023-04-07T23:17:37.859Z,4.18
2023-04-07T23:20:05.402Z,4.13
2023-04-07T23:22:32.113Z,4.14
2023-04-07T23:25:00.248Z,4.11
2023-04-07T23:27:27.018Z,4.07
2023-04-07T23:29:53.716Z,4.08
2023-04-07T23:32:20.496Z,4.08
2023-04-07T23:34:47.203Z,4.08
2023-04-07T23:37:13.937Z,4.08
2023-04-07T23:39:40.630Z,4.17
2023-04-07T23:42:08.694Z,4.22
2023-04-07T23:44:35.439Z,4.20
2023-04-07T23:47:02.138Z,4.18
2023-04-07T23:49:28.867Z,4.20
2023-04-07T23:51:55.554Z,4.24
2023-04-07T23:54:22.404Z,4.25
2023-04-07T23:56:49.110Z,4.08
2023-04-07T23:59:17.184Z,4.10
